sensor_id;sensor_type;location;lat;lon;timestamp;P1;durP1;ratioP1;P2;durP2;ratioP2
4744;SDS011;2386;42.138;24.746;2022-11-03T00:02:11;45.30;;;7.67;;
4744;SDS011;2386;42.138;24.746;2022-11-03T00:04:37;46.83;;;8.70;;
4744;SDS011;2386;42.138;24.746;2022-11-03T00:07:02;50.13;;;8.77;;
4744;SDS011;2386;42.138;24.746;2022-11-03T00:09:27;58.33;;;8.90;;
4744;SDS011;2386;42.138;24.746;2022-11-03T00:11:55;45.47;;;8.60;;
4744;SDS011;2386;42.138;24.746;2022-11-03T00:14:20;55.17;;;8.73;;
4744;SDS011;2386;42.138;24.746;2022-11-03T00:16:46;41.30;;;7.50;;
4744;SDS011;2386;42.138;24.746;2022-11-03T00:19:11;46.67;;;8.33;;
4744;SDS011;2386;42.138;24.746;2022-11-03T00:21:40;57.90;;;9.40;;
4744;SDS011;2386;42.138;24.746;2022-11-03T00:24:05;62.67;;;9.13;;
4744;SDS011;2386;42.138;24.746;2022-11-03T00:26:31;46.23;;;8.53;;
4744;SDS011;2386;42.138;24.746;2022-11-03T00:28:59;37.23;;;8.07;;
4744;SDS011;2386;42.138;24.746;2022-11-03T00:31:29;41.37;;;8.23;;
4744;SDS011;2386;42.138;24.746;2022-11-03T00:33:57;42.33;;;7.70;;
4744;SDS011;2386;42.138;24.746;2022-11-03T00:36:24;42.90;;;7.80;;
4744;SDS011;2386;42.138;24.746;2022-11-03T00:38:51;40.80;;;7.47;;
4744;SDS011;2386;42.138;24.746;2022-11-03T00:41:17;36.30;;;7.87;;
4744;SDS011;2386;42.138;24.746;2022-11-03T00:43:47;39.27;;;7.70;;
4744;SDS011;2386;42.138;24.746;2022-11-03T00:46:14;50.97;;;7.53;;
4744;SDS011;2386;42.138;24.746;2022-11-03T00:48:40;41.20;;;7.57;;
4744;SDS011;2386;42.138;24.746;2022-11-03T00:53:34;38.63;;;7.00;;
4744;SDS011;2386;42.138;24.746;2022-11-03T00:56:04;38.87;;;7.43;;
4744;SDS011;2386;42.138;24.746;2022-11-03T00:58:31;42.33;;;8.13;;
4744;SDS011;2386;42.138;24.746;2022-11-03T01:00:58;47.63;;;8.00;;
4744;SDS011;2386;42.138;24.746;2022-11-03T01:03:39;47.87;;;8.47;;
4744;SDS011;2386;42.138;24.746;2022-11-03T01:06:06;17.37;;;5.03;;
4744;SDS011;2386;42.138;24.746;2022-11-03T01:08:52;40.57;;;7.03;;
4744;SDS011;2386;42.138;24.746;2022-11-03T01:11:20;41.57;;;8.00;;
4744;SDS011;2386;42.138;24.746;2022-11-03T01:14:07;34.30;;;6.60;;
4744;SDS011;2386;42.138;24.746;2022-11-03T01:16:36;46.77;;;7.50;;
4744;SDS011;2386;42.138;24.746;2022-11-03T01:19:02;48.10;;;8.50;;
4744;SDS011;2386;42.138;24.746;2022-11-03T01:21:27;38.10;;;7.20;;
4744;SDS011;2386;42.138;24.746;2022-11-03T01:23:53;52.13;;;8.60;;
4744;SDS011;2386;42.138;24.746;2022-11-03T01:26:18;50.07;;;8.60;;
4744;SDS011;2386;42.138;24.746;2022-11-03T01:28:44;48.60;;;6.97;;
4744;SDS011;2386;42.138;24.746;2022-11-03T01:31:18;36.77;;;7.40;;
4744;SDS011;2386;42.138;24.746;2022-11-03T01:33:47;41.63;;;7.87;;
4744;SDS011;2386;42.138;24.746;2022-11-03T01:36:14;38.40;;;7.30;;
4744;SDS011;2386;42.138;24.746;2022-11-03T01:38:40;48.93;;;8.10;;
4744;SDS011;2386;42.138;24.746;2022-11-03T01:41:07;48.17;;;7.63;;
4744;SDS011;2386;42.138;24.746;2022-11-03T01:43:37;45.73;;;7.50;;
4744;SDS011;2386;42.138;24.746;2022-11-03T01:48:34;44.37;;;7.47;;
4744;SDS011;2386;42.138;24.746;2022-11-03T01:51:03;27.43;;;5.43;;
4744;SDS011;2386;42.138;24.746;2022-11-03T01:53:30;39.27;;;7.13;;
4744;SDS011;2386;42.138;24.746;2022-11-03T01:55:56;49.10;;;7.10;;
4744;SDS011;2386;42.138;24.746;2022-11-03T01:58:25;47.50;;;7.90;;
4744;SDS011;2386;42.138;24.746;2022-11-03T02:00:54;37.77;;;6.63;;
4744;SDS011;2386;42.138;24.746;2022-11-03T02:03:23;47.20;;;7.70;;
4744;SDS011;2386;42.138;24.746;2022-11-03T02:05:51;40.70;;;7.30;;
4744;SDS011;2386;42.138;24.746;2022-11-03T02:10:58;37.03;;;6.97;;
4744;SDS011;2386;42.138;24.746;2022-11-03T02:13:44;31.90;;;6.20;;
4744;SDS011;2386;42.138;24.746;2022-11-03T02:16:10;30.37;;;6.30;;
4744;SDS011;2386;42.138;24.746;2022-11-03T02:18:35;33.70;;;6.67;;
4744;SDS011;2386;42.138;24.746;2022-11-03T02:21:06;46.53;;;7.90;;
4744;SDS011;2386;42.138;24.746;2022-11-03T02:24:07;25.87;;;5.53;;
4744;SDS011;2386;42.138;24.746;2022-11-03T02:26:27;61.70;;;8.03;;
4744;SDS011;2386;42.138;24.746;2022-11-03T02:28:53;32.87;;;6.20;;
4744;SDS011;2386;42.138;24.746;2022-11-03T02:31:28;41.73;;;6.83;;
4744;SDS011;2386;42.138;24.746;2022-11-03T02:37:03;37.00;;;6.83;;
4744;SDS011;2386;42.138;24.746;2022-11-03T02:39:40;46.73;;;8.07;;
4744;SDS011;2386;42.138;24.746;2022-11-03T02:42:15;44.60;;;7.43;;
4744;SDS011;2386;42.138;24.746;2022-11-03T02:44:44;47.47;;;7.97;;
4744;SDS011;2386;42.138;24.746;2022-11-03T02:47:14;47.90;;;8.20;;
4744;SDS011;2386;42.138;24.746;2022-11-03T02:49:48;43.90;;;7.50;;
4744;SDS011;2386;42.138;24.746;2022-11-03T02:55:13;46.80;;;7.00;;
4744;SDS011;2386;42.138;24.746;2022-11-03T03:00:27;45.57;;;7.10;;
4744;SDS011;2386;42.138;24.746;2022-11-03T03:03:01;40.10;;;6.67;;
4744;SDS011;2386;42.138;24.746;2022-11-03T03:05:31;41.10;;;7.00;;
4744;SDS011;2386;42.138;24.746;2022-11-03T03:08:04;43.53;;;7.77;;
4744;SDS011;2386;42.138;24.746;2022-11-03T03:10:36;34.83;;;6.37;;
4744;SDS011;2386;42.138;24.746;2022-11-03T03:13:05;39.03;;;7.47;;
4744;SDS011;2386;42.138;24.746;2022-11-03T03:15:44;33.23;;;7.47;;
4744;SDS011;2386;42.138;24.746;2022-11-03T03:18:34;38.33;;;6.87;;
4744;SDS011;2386;42.138;24.746;2022-11-03T03:21:15;47.13;;;8.10;;
4744;SDS011;2386;42.138;24.746;2022-11-03T03:23:50;53.80;;;7.73;;
4744;SDS011;2386;42.138;24.746;2022-11-03T03:26:32;41.87;;;7.27;;
4744;SDS011;2386;42.138;24.746;2022-11-03T03:29:02;60.13;;;8.97;;
4744;SDS011;2386;42.138;24.746;2022-11-03T03:31:34;42.73;;;7.17;;
4744;SDS011;2386;42.138;24.746;2022-11-03T03:34:05;43.70;;;7.87;;
4744;SDS011;2386;42.138;24.746;2022-11-03T03:36:31;40.40;;;7.13;;
4744;SDS011;2386;42.138;24.746;2022-11-03T03:39:02;43.67;;;8.00;;
4744;SDS011;2386;42.138;24.746;2022-11-03T03:41:31;40.57;;;7.10;;
4744;SDS011;2386;42.138;24.746;2022-11-03T03:44:00;51.93;;;8.57;;
4744;SDS011;2386;42.138;24.746;2022-11-03T03:46:34;31.70;;;6.63;;
4744;SDS011;2386;42.138;24.746;2022-11-03T03:49:03;52.27;;;8.93;;
4744;SDS011;2386;42.138;24.746;2022-11-03T03:51:29;38.43;;;6.70;;
4744;SDS011;2386;42.138;24.746;2022-11-03T03:53:55;35.50;;;6.63;;
4744;SDS011;2386;42.138;24.746;2022-11-03T03:56:35;29.27;;;6.23;;
4744;SDS011;2386;42.138;24.746;2022-11-03T03:59:06;52.90;;;8.27;;
4744;SDS011;2386;42.138;24.746;2022-11-03T04:01:32;46.03;;;8.17;;
4744;SDS011;2386;42.138;24.746;2022-11-03T04:03:57;46.33;;;8.57;;
4744;SDS011;2386;42.138;24.746;2022-11-03T04:06:23;50.80;;;7.50;;
4744;SDS011;2386;42.138;24.746;2022-11-03T04:08:48;41.30;;;6.73;;
4744;SDS011;2386;42.138;24.746;2022-11-03T04:11:14;52.40;;;7.93;;
4744;SDS011;2386;42.138;24.746;2022-11-03T04:13:57;39.67;;;6.83;;
4744;SDS011;2386;42.138;24.746;2022-11-03T04:16:41;50.00;;;7.57;;
4744;SDS011;2386;42.138;24.746;2022-11-03T04:19:25;46.60;;;7.17;;
4744;SDS011;2386;42.138;24.746;2022-11-03T04:22:09;45.50;;;7.87;;
4744;SDS011;2386;42.138;24.746;2022-11-03T04:24:41;38.03;;;6.30;;
4744;SDS011;2386;42.138;24.746;2022-11-03T04:27:30;29.77;;;5.53;;
4744;SDS011;2386;42.138;24.746;2022-11-03T04:32:35;30.73;;;6.10;;
4744;SDS011;2386;42.138;24.746;2022-11-03T04:35:01;28.63;;;5.17;;
4744;SDS011;2386;42.138;24.746;2022-11-03T04:37:38;39.60;;;6.73;;
4744;SDS011;2386;42.138;24.746;2022-11-03T04:40:04;36.20;;;7.17;;
4744;SDS011;2386;42.138;24.746;2022-11-03T04:42:38;57.73;;;7.90;;
4744;SDS011;2386;42.138;24.746;2022-11-03T04:45:05;49.83;;;7.17;;
4744;SDS011;2386;42.138;24.746;2022-11-03T04:47:47;48.17;;;6.90;;
4744;SDS011;2386;42.138;24.746;2022-11-03T04:50:16;60.20;;;8.77;;
4744;SDS011;2386;42.138;24.746;2022-11-03T04:52:46;38.03;;;6.40;;
4744;SDS011;2386;42.138;24.746;2022-11-03T04:55:15;44.43;;;7.30;;
4744;SDS011;2386;42.138;24.746;2022-11-03T04:57:43;28.50;;;5.60;;
4744;SDS011;2386;42.138;24.746;2022-11-03T05:00:12;50.33;;;7.70;;
4744;SDS011;2386;42.138;24.746;2022-11-03T05:02:39;45.53;;;7.80;;
4744;SDS011;2386;42.138;24.746;2022-11-03T05:05:12;59.47;;;8.93;;
4744;SDS011;2386;42.138;24.746;2022-11-03T05:07:40;42.83;;;7.73;;
4744;SDS011;2386;42.138;24.746;2022-11-03T05:10:06;42.63;;;7.57;;
4744;SDS011;2386;42.138;24.746;2022-11-03T05:12:35;38.60;;;6.63;;
4744;SDS011;2386;42.138;24.746;2022-11-03T05:15:01;45.87;;;7.90;;
4744;SDS011;2386;42.138;24.746;2022-11-03T05:17:37;62.53;;;8.50;;
4744;SDS011;2386;42.138;24.746;2022-11-03T05:20:03;42.10;;;6.70;;
4744;SDS011;2386;42.138;24.746;2022-11-03T05:22:30;38.37;;;6.73;;
4744;SDS011;2386;42.138;24.746;2022-11-03T05:25:01;19.63;;;5.00;;
4744;SDS011;2386;42.138;24.746;2022-11-03T05:27:46;43.80;;;6.90;;
4744;SDS011;2386;42.138;24.746;2022-11-03T05:30:12;35.40;;;6.33;;
4744;SDS011;2386;42.138;24.746;2022-11-03T05:32:38;43.97;;;6.57;;
4744;SDS011;2386;42.138;24.746;2022-11-03T05:35:07;41.93;;;6.53;;
4744;SDS011;2386;42.138;24.746;2022-11-03T05:37:45;65.10;;;9.20;;
4744;SDS011;2386;42.138;24.746;2022-11-03T05:40:23;45.50;;;7.20;;
4744;SDS011;2386;42.138;24.746;2022-11-03T05:42:55;53.43;;;8.17;;
4744;SDS011;2386;42.138;24.746;2022-11-03T05:45:33;64.70;;;9.23;;
4744;SDS011;2386;42.138;24.746;2022-11-03T05:48:01;58.07;;;8.50;;
4744;SDS011;2386;42.138;24.746;2022-11-03T05:50:32;41.03;;;7.13;;
4744;SDS011;2386;42.138;24.746;2022-11-03T05:55:52;61.97;;;9.33;;
4744;SDS011;2386;42.138;24.746;2022-11-03T05:58:23;55.47;;;9.07;;
4744;SDS011;2386;42.138;24.746;2022-11-03T06:00:52;40.67;;;6.90;;
4744;SDS011;2386;42.138;24.746;2022-11-03T06:03:21;49.30;;;7.53;;
4744;SDS011;2386;42.138;24.746;2022-11-03T06:05:49;43.97;;;7.77;;
4744;SDS011;2386;42.138;24.746;2022-11-03T06:08:17;49.33;;;7.47;;
4744;SDS011;2386;42.138;24.746;2022-11-03T06:10:48;53.40;;;7.00;;
4744;SDS011;2386;42.138;24.746;2022-11-03T06:13:29;41.37;;;7.27;;
4744;SDS011;2386;42.138;24.746;2022-11-03T06:19:00;85.93;;;11.23;;
4744;SDS011;2386;42.138;24.746;2022-11-03T06:21:36;43.63;;;7.40;;
4744;SDS011;2386;42.138;24.746;2022-11-03T06:24:02;40.13;;;6.23;;
4744;SDS011;2386;42.138;24.746;2022-11-03T06:26:27;43.80;;;7.80;;
4744;SDS011;2386;42.138;24.746;2022-11-03T06:28:55;36.73;;;6.90;;
4744;SDS011;2386;42.138;24.746;2022-11-03T06:31:27;41.93;;;6.90;;
4744;SDS011;2386;42.138;24.746;2022-11-03T06:33:56;31.90;;;6.87;;
4744;SDS011;2386;42.138;24.746;2022-11-03T06:36:27;47.80;;;8.70;;
4744;SDS011;2386;42.138;24.746;2022-11-03T06:39:00;49.00;;;9.07;;
4744;SDS011;2386;42.138;24.746;2022-11-03T06:41:31;40.70;;;8.13;;
4744;SDS011;2386;42.138;24.746;2022-11-03T06:44:01;46.00;;;9.17;;
4744;SDS011;2386;42.138;24.746;2022-11-03T06:46:37;66.40;;;10.27;;
4744;SDS011;2386;42.138;24.746;2022-11-03T06:49:02;91.63;;;14.97;;
4744;SDS011;2386;42.138;24.746;2022-11-03T06:51:49;70.83;;;12.97;;
4744;SDS011;2386;42.138;24.746;2022-11-03T06:54:14;69.53;;;14.23;;
4744;SDS011;2386;42.138;24.746;2022-11-03T06:56:40;63.73;;;13.47;;
4744;SDS011;2386;42.138;24.746;2022-11-03T06:59:06;61.37;;;12.63;;
4744;SDS011;2386;42.138;24.746;2022-11-03T07:01:38;61.13;;;13.70;;
4744;SDS011;2386;42.138;24.746;2022-11-03T07:06:45;65.53;;;11.40;;
4744;SDS011;2386;42.138;24.746;2022-11-03T07:09:17;66.97;;;11.27;;
4744;SDS011;2386;42.138;24.746;2022-11-03T07:11:46;50.83;;;13.33;;
4744;SDS011;2386;42.138;24.746;2022-11-03T07:16:52;49.07;;;9.93;;
4744;SDS011;2386;42.138;24.746;2022-11-03T07:19:33;58.20;;;10.97;;
4744;SDS011;2386;42.138;24.746;2022-11-03T07:22:05;49.57;;;11.00;;
4744;SDS011;2386;42.138;24.746;2022-11-03T07:25:00;45.10;;;10.53;;
4744;SDS011;2386;42.138;24.746;2022-11-03T07:27:37;51.87;;;9.67;;
4744;SDS011;2386;42.138;24.746;2022-11-03T07:32:32;73.50;;;12.67;;
4744;SDS011;2386;42.138;24.746;2022-11-03T07:35:10;46.97;;;10.37;;
4744;SDS011;2386;42.138;24.746;2022-11-03T07:37:49;68.57;;;11.50;;
4744;SDS011;2386;42.138;24.746;2022-11-03T07:40:23;51.47;;;10.10;;
4744;SDS011;2386;42.138;24.746;2022-11-03T07:42:51;80.47;;;11.37;;
4744;SDS011;2386;42.138;24.746;2022-11-03T07:45:29;50.63;;;9.37;;
4744;SDS011;2386;42.138;24.746;2022-11-03T07:47:55;61.17;;;11.13;;
4744;SDS011;2386;42.138;24.746;2022-11-03T07:50:21;60.00;;;10.13;;
4744;SDS011;2386;42.138;24.746;2022-11-03T07:52:46;46.53;;;10.23;;
4744;SDS011;2386;42.138;24.746;2022-11-03T07:55:12;64.90;;;10.57;;
4744;SDS011;2386;42.138;24.746;2022-11-03T07:57:38;49.33;;;10.60;;
4744;SDS011;2386;42.138;24.746;2022-11-03T08:00:05;58.13;;;11.70;;
4744;SDS011;2386;42.138;24.746;2022-11-03T08:02:33;45.43;;;10.60;;
4744;SDS011;2386;42.138;24.746;2022-11-03T08:05:01;37.90;;;9.20;;
4744;SDS011;2386;42.138;24.746;2022-11-03T08:07:27;37.90;;;9.73;;
4744;SDS011;2386;42.138;24.746;2022-11-03T08:09:53;71.80;;;13.70;;
4744;SDS011;2386;42.138;24.746;2022-11-03T08:12:19;75.17;;;11.53;;
4744;SDS011;2386;42.138;24.746;2022-11-03T08:14:45;49.43;;;11.10;;
4744;SDS011;2386;42.138;24.746;2022-11-03T08:17:10;72.63;;;12.43;;
4744;SDS011;2386;42.138;24.746;2022-11-03T08:19:36;54.73;;;12.33;;
4744;SDS011;2386;42.138;24.746;2022-11-03T08:22:02;73.47;;;10.90;;
4744;SDS011;2386;42.138;24.746;2022-11-03T08:24:27;63.67;;;12.53;;
4744;SDS011;2386;42.138;24.746;2022-11-03T08:26:53;58.30;;;12.27;;
4744;SDS011;2386;42.138;24.746;2022-11-03T08:29:18;48.43;;;10.33;;
4744;SDS011;2386;42.138;24.746;2022-11-03T08:31:43;45.83;;;9.37;;
4744;SDS011;2386;42.138;24.746;2022-11-03T08:34:09;39.50;;;10.07;;
4744;SDS011;2386;42.138;24.746;2022-11-03T08:36:35;40.07;;;10.23;;
4744;SDS011;2386;42.138;24.746;2022-11-03T08:39:02;53.43;;;10.23;;
4744;SDS011;2386;42.138;24.746;2022-11-03T08:41:28;57.53;;;11.37;;
4744;SDS011;2386;42.138;24.746;2022-11-03T08:43:53;44.60;;;9.80;;
4744;SDS011;2386;42.138;24.746;2022-11-03T08:46:19;117.77;;;14.70;;
4744;SDS011;2386;42.138;24.746;2022-11-03T08:48:44;109.43;;;13.30;;
4744;SDS011;2386;42.138;24.746;2022-11-03T08:51:10;88.07;;;12.50;;
4744;SDS011;2386;42.138;24.746;2022-11-03T08:53:37;59.30;;;12.87;;
4744;SDS011;2386;42.138;24.746;2022-11-03T08:56:03;65.67;;;10.53;;
4744;SDS011;2386;42.138;24.746;2022-11-03T08:58:29;85.60;;;12.53;;
4744;SDS011;2386;42.138;24.746;2022-11-03T09:00:55;89.37;;;13.97;;
4744;SDS011;2386;42.138;24.746;2022-11-03T09:03:21;66.10;;;11.80;;
4744;SDS011;2386;42.138;24.746;2022-11-03T09:05:46;59.97;;;12.33;;
4744;SDS011;2386;42.138;24.746;2022-11-03T09:08:12;82.30;;;12.67;;
4744;SDS011;2386;42.138;24.746;2022-11-03T09:10:37;74.43;;;13.23;;
4744;SDS011;2386;42.138;24.746;2022-11-03T09:13:03;143.60;;;14.40;;
4744;SDS011;2386;42.138;24.746;2022-11-03T09:15:29;44.47;;;10.90;;
4744;SDS011;2386;42.138;24.746;2022-11-03T09:17:55;294.50;;;21.90;;
4744;SDS011;2386;42.138;24.746;2022-11-03T09:20:21;97.47;;;13.50;;
4744;SDS011;2386;42.138;24.746;2022-11-03T09:22:47;49.90;;;10.23;;
4744;SDS011;2386;42.138;24.746;2022-11-03T09:25:12;50.30;;;10.57;;
4744;SDS011;2386;42.138;24.746;2022-11-03T09:27:38;53.27;;;11.50;;
4744;SDS011;2386;42.138;24.746;2022-11-03T09:30:04;54.43;;;11.10;;
4744;SDS011;2386;42.138;24.746;2022-11-03T09:32:30;55.60;;;12.57;;
4744;SDS011;2386;42.138;24.746;2022-11-03T09:34:56;84.23;;;14.67;;
4744;SDS011;2386;42.138;24.746;2022-11-03T09:37:21;49.63;;;11.83;;
4744;SDS011;2386;42.138;24.746;2022-11-03T09:39:47;75.63;;;14.77;;
4744;SDS011;2386;42.138;24.746;2022-11-03T09:42:12;40.30;;;11.30;;
4744;SDS011;2386;42.138;24.746;2022-11-03T09:44:39;53.03;;;12.40;;
4744;SDS011;2386;42.138;24.746;2022-11-03T09:47:05;37.17;;;11.40;;
4744;SDS011;2386;42.138;24.746;2022-11-03T09:49:31;30.77;;;10.20;;
4744;SDS011;2386;42.138;24.746;2022-11-03T09:51:59;30.80;;;9.17;;
4744;SDS011;2386;42.138;24.746;2022-11-03T09:54:26;29.47;;;9.30;;
4744;SDS011;2386;42.138;24.746;2022-11-03T09:56:54;75.87;;;12.83;;
4744;SDS011;2386;42.138;24.746;2022-11-03T09:59:23;71.93;;;13.47;;
4744;SDS011;2386;42.138;24.746;2022-11-03T10:01:49;30.30;;;9.67;;
4744;SDS011;2386;42.138;24.746;2022-11-03T10:04:26;38.67;;;9.87;;
4744;SDS011;2386;42.138;24.746;2022-11-03T10:06:54;31.20;;;9.13;;
4744;SDS011;2386;42.138;24.746;2022-11-03T10:09:21;27.53;;;8.77;;
4744;SDS011;2386;42.138;24.746;2022-11-03T10:11:47;39.47;;;10.07;;
4744;SDS011;2386;42.138;24.746;2022-11-03T10:14:15;26.17;;;8.47;;
4744;SDS011;2386;42.138;24.746;2022-11-03T10:16:42;46.83;;;11.33;;
4744;SDS011;2386;42.138;24.746;2022-11-03T10:19:13;32.23;;;9.37;;
4744;SDS011;2386;42.138;24.746;2022-11-03T10:21:39;39.70;;;11.03;;
4744;SDS011;2386;42.138;24.746;2022-11-03T10:24:12;32.47;;;10.20;;
4744;SDS011;2386;42.138;24.746;2022-11-03T10:26:42;39.47;;;9.93;;
4744;SDS011;2386;42.138;24.746;2022-11-03T10:29:16;27.43;;;8.93;;
4744;SDS011;2386;42.138;24.746;2022-11-03T10:31:56;30.63;;;9.07;;
4744;SDS011;2386;42.138;24.746;2022-11-03T10:39:42;57.80;;;13.73;;
4744;SDS011;2386;42.138;24.746;2022-11-03T10:42:16;36.40;;;11.30;;
4744;SDS011;2386;42.138;24.746;2022-11-03T10:44:46;68.03;;;12.53;;
4744;SDS011;2386;42.138;24.746;2022-11-03T10:47:25;41.97;;;10.67;;
4744;SDS011;2386;42.138;24.746;2022-11-03T10:49:55;43.43;;;10.17;;
4744;SDS011;2386;42.138;24.746;2022-11-03T10:52:21;31.40;;;9.87;;
4744;SDS011;2386;42.138;24.746;2022-11-03T10:54:52;38.33;;;10.43;;
4744;SDS011;2386;42.138;24.746;2022-11-03T10:57:20;48.30;;;11.47;;
4744;SDS011;2386;42.138;24.746;2022-11-03T10:59:47;50.77;;;10.77;;
4744;SDS011;2386;42.138;24.746;2022-11-03T11:02:21;31.73;;;9.70;;
4744;SDS011;2386;42.138;24.746;2022-11-03T11:04:53;40.20;;;10.30;;
4744;SDS011;2386;42.138;24.746;2022-11-03T11:07:24;59.60;;;12.50;;
4744;SDS011;2386;42.138;24.746;2022-11-03T11:10:02;39.47;;;9.53;;
4744;SDS011;2386;42.138;24.746;2022-11-03T11:12:38;45.87;;;10.73;;
4744;SDS011;2386;42.138;24.746;2022-11-03T11:18:08;50.87;;;13.70;;
4744;SDS011;2386;42.138;24.746;2022-11-03T11:20:35;53.53;;;11.63;;
4744;SDS011;2386;42.138;24.746;2022-11-03T11:28:37;43.67;;;10.80;;
4744;SDS011;2386;42.138;24.746;2022-11-03T11:36:37;89.10;;;12.53;;
4744;SDS011;2386;42.138;24.746;2022-11-03T11:42:04;79.17;;;11.53;;
4744;SDS011;2386;42.138;24.746;2022-11-03T11:52:41;64.27;;;12.77;;
4744;SDS011;2386;42.138;24.746;2022-11-03T11:57:49;43.33;;;10.50;;
4744;SDS011;2386;42.138;24.746;2022-11-03T12:00:20;48.20;;;11.47;;
4744;SDS011;2386;42.138;24.746;2022-11-03T12:02:48;60.57;;;13.83;;
4744;SDS011;2386;42.138;24.746;2022-11-03T12:05:24;39.27;;;11.23;;
4744;SDS011;2386;42.138;24.746;2022-11-03T12:07:52;252.03;;;18.47;;
4744;SDS011;2386;42.138;24.746;2022-11-03T12:10:25;85.40;;;12.90;;
4744;SDS011;2386;42.138;24.746;2022-11-03T12:12:53;66.37;;;11.70;;
4744;SDS011;2386;42.138;24.746;2022-11-03T12:18:29;31.00;;;9.50;;
4744;SDS011;2386;42.138;24.746;2022-11-03T12:20:55;43.30;;;10.73;;
4744;SDS011;2386;42.138;24.746;2022-11-03T12:26:13;41.10;;;11.50;;
4744;SDS011;2386;42.138;24.746;2022-11-03T12:28:40;35.73;;;10.50;;
4744;SDS011;2386;42.138;24.746;2022-11-03T12:31:05;42.07;;;11.07;;
4744;SDS011;2386;42.138;24.746;2022-11-03T12:33:31;47.77;;;10.77;;
4744;SDS011;2386;42.138;24.746;2022-11-03T12:35:56;49.67;;;11.80;;
4744;SDS011;2386;42.138;24.746;2022-11-03T12:38:22;35.87;;;11.37;;
4744;SDS011;2386;42.138;24.746;2022-11-03T12:40:48;40.33;;;10.30;;
4744;SDS011;2386;42.138;24.746;2022-11-03T12:43:14;25.33;;;9.77;;
4744;SDS011;2386;42.138;24.746;2022-11-03T12:45:40;33.07;;;10.77;;
4744;SDS011;2386;42.138;24.746;2022-11-03T12:48:05;47.70;;;11.20;;
4744;SDS011;2386;42.138;24.746;2022-11-03T12:50:31;37.77;;;11.27;;
4744;SDS011;2386;42.138;24.746;2022-11-03T12:52:57;40.50;;;11.03;;
4744;SDS011;2386;42.138;24.746;2022-11-03T12:55:23;55.17;;;12.90;;
4744;SDS011;2386;42.138;24.746;2022-11-03T12:57:48;26.13;;;9.87;;
4744;SDS011;2386;42.138;24.746;2022-11-03T13:00:14;46.03;;;11.63;;
4744;SDS011;2386;42.138;24.746;2022-11-03T13:02:39;45.70;;;11.20;;
4744;SDS011;2386;42.138;24.746;2022-11-03T13:05:05;55.00;;;12.03;;
4744;SDS011;2386;42.138;24.746;2022-11-03T13:07:31;36.57;;;10.53;;
4744;SDS011;2386;42.138;24.746;2022-11-03T13:09:57;45.53;;;12.30;;
4744;SDS011;2386;42.138;24.746;2022-11-03T13:12:22;49.80;;;12.60;;
4744;SDS011;2386;42.138;24.746;2022-11-03T13:14:57;50.40;;;11.33;;
4744;SDS011;2386;42.138;24.746;2022-11-03T13:17:25;30.60;;;11.10;;
4744;SDS011;2386;42.138;24.746;2022-11-03T13:19:50;38.50;;;11.73;;
4744;SDS011;2386;42.138;24.746;2022-11-03T13:22:18;35.70;;;10.53;;
4744;SDS011;2386;42.138;24.746;2022-11-03T13:24:44;31.33;;;10.83;;
4744;SDS011;2386;42.138;24.746;2022-11-03T13:27:10;41.53;;;11.10;;
4744;SDS011;2386;42.138;24.746;2022-11-03T13:29:35;26.50;;;9.30;;
4744;SDS011;2386;42.138;24.746;2022-11-03T13:32:04;34.57;;;10.50;;
4744;SDS011;2386;42.138;24.746;2022-11-03T13:34:30;25.30;;;9.90;;
4744;SDS011;2386;42.138;24.746;2022-11-03T13:36:55;38.93;;;9.80;;
4744;SDS011;2386;42.138;24.746;2022-11-03T13:39:21;27.20;;;9.97;;
4744;SDS011;2386;42.138;24.746;2022-11-03T13:41:47;37.80;;;10.00;;
4744;SDS011;2386;42.138;24.746;2022-11-03T13:44:12;31.40;;;9.70;;
4744;SDS011;2386;42.138;24.746;2022-11-03T13:46:38;23.40;;;8.43;;
4744;SDS011;2386;42.138;24.746;2022-11-03T13:49:03;32.63;;;9.27;;
4744;SDS011;2386;42.138;24.746;2022-11-03T13:51:29;31.20;;;10.60;;
4744;SDS011;2386;42.138;24.746;2022-11-03T13:53:54;24.03;;;7.80;;
4744;SDS011;2386;42.138;24.746;2022-11-03T13:56:19;26.17;;;9.00;;
4744;SDS011;2386;42.138;24.746;2022-11-03T13:58:45;29.83;;;8.63;;
4744;SDS011;2386;42.138;24.746;2022-11-03T14:01:10;40.90;;;11.43;;
4744;SDS011;2386;42.138;24.746;2022-11-03T14:03:36;25.60;;;11.90;;
4744;SDS011;2386;42.138;24.746;2022-11-03T14:06:01;23.17;;;9.60;;
4744;SDS011;2386;42.138;24.746;2022-11-03T14:08:27;31.70;;;10.00;;
4744;SDS011;2386;42.138;24.746;2022-11-03T14:10:52;24.60;;;9.00;;
4744;SDS011;2386;42.138;24.746;2022-11-03T14:13:18;27.77;;;8.93;;
4744;SDS011;2386;42.138;24.746;2022-11-03T14:15:43;26.63;;;9.57;;
4744;SDS011;2386;42.138;24.746;2022-11-03T14:18:09;40.77;;;9.83;;
4744;SDS011;2386;42.138;24.746;2022-11-03T14:20:34;27.97;;;8.90;;
4744;SDS011;2386;42.138;24.746;2022-11-03T14:22:59;38.73;;;10.33;;
4744;SDS011;2386;42.138;24.746;2022-11-03T14:25:25;23.63;;;8.70;;
4744;SDS011;2386;42.138;24.746;2022-11-03T14:27:50;31.97;;;9.30;;
4744;SDS011;2386;42.138;24.746;2022-11-03T14:30:16;50.13;;;12.93;;
4744;SDS011;2386;42.138;24.746;2022-11-03T14:32:41;26.53;;;9.10;;
4744;SDS011;2386;42.138;24.746;2022-11-03T14:35:07;34.20;;;9.73;;
4744;SDS011;2386;42.138;24.746;2022-11-03T14:37:33;24.27;;;8.70;;
4744;SDS011;2386;42.138;24.746;2022-11-03T14:39:58;34.27;;;11.43;;
4744;SDS011;2386;42.138;24.746;2022-11-03T14:42:24;41.80;;;12.60;;
4744;SDS011;2386;42.138;24.746;2022-11-03T14:44:49;51.83;;;12.90;;
4744;SDS011;2386;42.138;24.746;2022-11-03T14:47:15;43.10;;;11.63;;
4744;SDS011;2386;42.138;24.746;2022-11-03T14:49:42;34.77;;;10.30;;
4744;SDS011;2386;42.138;24.746;2022-11-03T14:52:07;36.60;;;11.77;;
4744;SDS011;2386;42.138;24.746;2022-11-03T14:54:33;45.77;;;9.80;;
4744;SDS011;2386;42.138;24.746;2022-11-03T14:57:00;40.20;;;12.10;;
4744;SDS011;2386;42.138;24.746;2022-11-03T14:59:26;51.03;;;11.87;;
4744;SDS011;2386;42.138;24.746;2022-11-03T15:01:52;26.23;;;9.90;;
4744;SDS011;2386;42.138;24.746;2022-11-03T15:04:18;34.67;;;9.80;;
4744;SDS011;2386;42.138;24.746;2022-11-03T15:06:44;39.73;;;10.87;;
4744;SDS011;2386;42.138;24.746;2022-11-03T15:09:10;42.27;;;11.50;;
4744;SDS011;2386;42.138;24.746;2022-11-03T15:11:39;44.03;;;11.83;;
4744;SDS011;2386;42.138;24.746;2022-11-03T15:14:05;33.30;;;9.67;;
4744;SDS011;2386;42.138;24.746;2022-11-03T15:16:31;52.77;;;12.80;;
4744;SDS011;2386;42.138;24.746;2022-11-03T15:18:56;39.53;;;11.23;;
4744;SDS011;2386;42.138;24.746;2022-11-03T15:21:23;41.23;;;12.07;;
4744;SDS011;2386;42.138;24.746;2022-11-03T15:23:48;40.03;;;12.20;;
4744;SDS011;2386;42.138;24.746;2022-11-03T15:26:14;95.63;;;17.33;;
4744;SDS011;2386;42.138;24.746;2022-11-03T15:28:39;89.13;;;15.13;;
4744;SDS011;2386;42.138;24.746;2022-11-03T15:31:06;58.37;;;12.63;;
4744;SDS011;2386;42.138;24.746;2022-11-03T15:33:32;58.00;;;18.77;;
4744;SDS011;2386;42.138;24.746;2022-11-03T15:35:59;55.17;;;13.90;;
4744;SDS011;2386;42.138;24.746;2022-11-03T15:38:25;71.40;;;14.27;;
4744;SDS011;2386;42.138;24.746;2022-11-03T15:40:50;83.27;;;14.83;;
4744;SDS011;2386;42.138;24.746;2022-11-03T15:43:16;78.70;;;16.63;;
4744;SDS011;2386;42.138;24.746;2022-11-03T15:45:41;80.30;;;16.07;;
4744;SDS011;2386;42.138;24.746;2022-11-03T15:48:07;70.73;;;16.33;;
4744;SDS011;2386;42.138;24.746;2022-11-03T15:50:32;76.60;;;16.70;;
4744;SDS011;2386;42.138;24.746;2022-11-03T15:52:58;70.73;;;15.53;;
4744;SDS011;2386;42.138;24.746;2022-11-03T15:55:23;68.13;;;15.83;;
4744;SDS011;2386;42.138;24.746;2022-11-03T15:57:49;54.50;;;14.73;;
4744;SDS011;2386;42.138;24.746;2022-11-03T16:00:15;72.47;;;16.90;;
4744;SDS011;2386;42.138;24.746;2022-11-03T16:02:41;55.83;;;15.20;;